Time;durP1;ratioP1;P1;durP2;ratioP2;P2;SDS_P1;SDS_P2;PMS_P1;PMS_P2;Temp;Humidity;BMP_temperature;BMP_pressure;BME280_temperature;BME280_humidity;BME280_pressure;Samples;Min_cycle;Max_cycle;Signal;HPM_P1;HPM_P2
2022/09/01 00:01:20;;;;;;;22.02;12.90;;;;;;;21.69;100.00;100147.06;5028882;28;20040;-90
2022/09/01 00:03:47;;;;;;;18.65;11.60;;;;;;;21.69;100.00;100141.66;5024525;28;20492;-88
2022/09/01 00:06:22;;;;;;;22.83;13.05;;;;;;;21.73;100.00;100146.34;5011068;28;20079;-92
2022/09/01 00:08:54;;;;;;;18.50;12.30;;;;;;;21.74;100.00;100141.78;5028839;28;20105;-90
2022/09/01 00:11:22;;;;;;;22.33;13.85;;;;;;;21.72;100.00;100138.47;5044219;28;20057;-93
2022/09/01 00:13:49;;;;;;;20.88;12.77;;;;;;;21.77;100.00;100144.78;5040797;28;20545;-91
2022/09/01 00:16:29;;;;;;;17.50;13.02;;;;;;;21.59;100.00;100134.22;5049882;28;20044;-91
2022/09/01 00:18:58;;;;;;;24.25;13.73;;;;;;;21.56;100.00;100130.13;5019855;28;20049;-90
2022/09/01 00:21:41;;;;;;;17.92;12.88;;;;;;;21.55;100.00;100133.06;5037436;28;20388;-88
2022/09/01 00:24:10;;;;;;;17.20;11.55;;;;;;;21.55;100.00;100136.59;5021496;28;20547;-88
2022/09/01 00:26:37;;;;;;;14.23;10.88;;;;;;;21.69;100.00;100139.78;5039069;28;20519;-89
2022/09/01 00:29:04;;;;;;;12.90;10.48;;;;;;;21.66;100.00;100134.88;5039999;28;20033;-89
2022/09/01 00:31:30;;;;;;;17.17;11.02;;;;;;;21.61;100.00;100138.31;5021524;28;20044;-90
2022/09/01 00:34:00;;;;;;;14.98;9.82;;;;;;;21.60;100.00;100141.25;5004118;28;20057;-88
2022/09/01 00:36:25;;;;;;;13.00;9.77;;;;;;;21.63;100.00;100144.28;5019923;28;20085;-89
2022/09/01 00:38:51;;;;;;;18.92;11.85;;;;;;;21.72;100.00;100149.28;5036620;28;20033;-90
2022/09/01 00:41:21;;;;;;;10.57;8.07;;;;;;;21.73;100.00;100150.91;5003450;28;20048;-90
2022/09/01 00:43:53;;;;;;;11.18;8.93;;;;;;;21.78;100.00;100148.28;5018664;28;20072;-90
2022/09/01 00:46:31;;;;;;;14.43;8.75;;;;;;;21.73;100.00;100151.72;5036208;28;20026;-89
2022/09/01 00:49:27;;;;;;;12.05;9.55;;;;;;;21.73;100.00;100156.31;5036456;28;20037;-91
2022/09/01 00:51:58;;;;;;;14.52;10.60;;;;;;;21.67;100.00;100149.19;5021841;28;20037;-89
2022/09/01 00:54:29;;;;;;;15.32;10.23;;;;;;;21.73;100.00;100157.13;5036904;28;20092;-88
2022/09/01 00:56:55;;;;;;;13.20;7.28;;;;;;;21.65;100.00;100150.25;5037852;28;20037;-91
2022/09/01 00:59:23;;;;;;;11.07;7.30;;;;;;;21.63;100.00;100156.94;5019626;28;20033;-90
2022/09/01 01:01:49;;;;;;;11.98;7.53;;;;;;;21.43;100.00;100141.22;5027998;28;20041;-88
2022/09/01 01:04:15;;;;;;;8.95;7.60;;;;;;;21.60;100.00;100152.06;5038120;28;20033;-87
2022/09/01 01:07:01;;;;;;;11.50;8.02;;;;;;;21.58;100.00;100148.75;5020515;28;20438;-87
2022/09/01 01:09:30;;;;;;;13.05;7.95;;;;;;;21.18;100.00;100153.41;5023682;28;20546;-91
2022/09/01 01:12:12;;;;;;;9.18;7.25;;;;;;;21.20;100.00;100151.28;5029180;28;20502;-89
2022/09/01 01:14:49;;;;;;;12.65;9.40;;;;;;;20.93;100.00;100154.50;5044194;28;20060;-89
2022/09/01 01:17:20;;;;;;;12.85;9.00;;;;;;;20.90;100.00;100157.69;5029919;28;20041;-88
2022/09/01 01:23:04;;;;;;;17.75;10.57;;;;;;;20.83;100.00;100157.00;5050150;28;20048;-88
2022/09/01 01:25:39;;;;;;;14.73;10.10;;;;;;;20.90;100.00;100155.00;5026726;28;20107;-87
2022/09/01 01:28:10;;;;;;;10.90;9.60;;;;;;;20.79;100.00;100155.81;5029576;28;20041;-88
2022/09/01 01:30:42;;;;;;;12.15;9.73;;;;;;;20.80;100.00;100162.03;5028936;28;20040;-91
2022/09/01 01:33:12;;;;;;;18.40;10.38;;;;;;;20.73;100.00;100155.97;5048952;28;20037;-88
2022/09/01 01:35:40;;;;;;;19.63;10.63;;;;;;;20.70;100.00;100151.88;5035511;28;20033;-88
2022/09/01 01:38:15;;;;;;;15.07;10.73;;;;;;;20.71;100.00;100153.50;5036663;28;20036;-89
2022/09/01 01:40:41;;;;;;;22.30;10.38;;;;;;;20.67;100.00;100163.13;5017672;28;20033;-90
2022/09/01 01:43:10;;;;;;;12.77;10.50;;;;;;;20.65;100.00;100165.22;5016402;28;20373;-89
2022/09/01 01:45:36;;;;;;;11.45;10.25;;;;;;;20.59;100.00;100161.59;5016505;28;20034;-89
2022/09/01 01:48:08;;;;;;;11.55;10.25;;;;;;;20.61;100.00;100158.69;5021665;28;20033;-89
2022/09/01 01:50:35;;;;;;;12.48;10.10;;;;;;;20.60;100.00;100167.81;5037916;28;20038;-91
2022/09/01 01:53:05;;;;;;;15.35;10.70;;;;;;;20.59;100.00;100166.16;5034996;28;20552;-88
2022/09/01 01:55:33;;;;;;;13.75;10.85;;;;;;;20.61;100.00;100172.16;5017234;28;20049;-88
2022/09/01 01:58:00;;;;;;;18.15;10.30;;;;;;;20.71;100.00;100164.28;5017827;28;20614;-89
2022/09/01 02:00:33;;;;;;;9.40;8.40;;;;;;;20.71;100.00;100163.47;5017522;28;20057;-89
2022/09/01 02:03:00;;;;;;;11.93;8.30;;;;;;;20.67;100.00;100163.13;5017963;28;20360;-88
2022/09/01 02:05:34;;;;;;;12.18;8.52;;;;;;;20.62;100.00;100157.59;5036064;28;20029;-90
2022/09/01 02:08:04;;;;;;;11.07;8.27;;;;;;;20.66;100.00;100155.25;5040769;28;20044;-90
2022/09/01 02:10:37;;;;;;;13.40;8.02;;;;;;;20.71;100.00;100147.31;5001114;28;20044;-88
2022/09/01 02:13:10;;;;;;;9.98;8.50;;;;;;;20.82;100.00;100147.25;5021294;28;20071;-89
2022/09/01 02:15:42;;;;;;;12.60;8.20;;;;;;;20.82;100.00;100151.81;5050322;22;20049;-93
2022/09/01 02:18:22;;;;;;;12.55;8.32;;;;;;;20.75;100.00;100148.47;5036630;28;20116;-91
2022/09/01 02:20:50;;;;;;;14.95;8.82;;;;;;;20.71;100.00;100142.75;5035408;28;20095;-88
2022/09/01 02:23:22;;;;;;;11.63;8.98;;;;;;;20.62;100.00;100139.56;5036496;28;20029;-88
2022/09/01 02:25:50;;;;;;;14.45;9.70;;;;;;;20.53;100.00;100145.56;5039819;28;20029;-86
2022/09/01 02:28:20;;;;;;;11.80;9.55;;;;;;;20.53;100.00;100146.38;5020675;28;20116;-89
2022/09/01 02:30:53;;;;;;;15.27;10.20;;;;;;;20.56;100.00;100145.09;5024011;28;20041;-92
2022/09/01 02:33:27;;;;;;;16.30;11.35;;;;;;;20.50;100.00;100136.09;5044960;28;20040;-89
2022/09/01 02:35:56;;;;;;;14.05;12.05;;;;;;;20.45;100.00;100130.59;5013287;28;20041;-90
2022/09/01 02:38:28;;;;;;;18.20;11.43;;;;;;;20.47;100.00;100135.75;5046016;28;20478;-87
2022/09/01 02:40:57;;;;;;;17.65;11.80;;;;;;;20.45;100.00;100140.56;5040257;28;20044;-89
2022/09/01 02:43:27;;;;;;;17.35;12.40;;;;;;;20.49;100.00;100144.41;5045309;28;20052;-90
2022/09/01 02:45:58;;;;;;;19.27;12.23;;;;;;;20.62;100.00;100136.88;5046158;28;20034;-88
2022/09/01 02:48:28;;;;;;;17.80;11.48;;;;;;;20.67;100.00;100136.19;5044747;28;20037;-90
2022/09/01 02:50:58;;;;;;;15.60;12.30;;;;;;;20.60;100.00;100133.63;5027166;28;20045;-93
2022/09/01 02:53:25;;;;;;;19.95;13.15;;;;;;;20.56;100.00;100123.56;5025612;28;20504;-89
2022/09/01 02:55:57;;;;;;;17.83;12.95;;;;;;;20.63;100.00;100129.63;5028667;28;20040;-89
2022/09/01 02:58:25;;;;;;;16.20;11.88;;;;;;;20.74;100.00;100131.50;5036712;28;20053;-87
2022/09/01 03:00:54;;;;;;;20.23;12.43;;;;;;;20.79;100.00;100136.97;5047074;22;20041;-90
2022/09/01 03:03:27;;;;;;;18.17;12.98;;;;;;;20.86;100.00;100137.66;5006210;28;20689;-91
2022/09/01 03:05:55;;;;;;;17.90;11.10;;;;;;;20.89;100.00;100129.09;5019543;28;20487;-90
2022/09/01 03:08:27;;;;;;;19.77;13.38;;;;;;;20.78;100.00;100129.94;5015584;28;20052;-91
2022/09/01 03:10:53;;;;;;;17.40;12.52;;;;;;;20.75;100.00;100135.81;5035621;28;20045;-88
2022/09/01 03:13:22;;;;;;;15.60;12.55;;;;;;;20.75;100.00;100127.72;5036897;28;20030;-87
2022/09/01 03:15:58;;;;;;;14.63;11.95;;;;;;;20.83;100.00;100130.06;5037588;28;20052;-88
2022/09/01 03:18:24;;;;;;;15.27;11.38;;;;;;;20.68;100.00;100135.13;5019847;28;20127;-87
2022/09/01 03:20:53;;;;;;;15.80;11.45;;;;;;;20.70;100.00;100135.72;5039195;28;20033;-87
2022/09/01 03:23:19;;;;;;;17.58;11.00;;;;;;;20.67;100.00;100130.81;5042050;28;20030;-89
2022/09/01 03:25:47;;;;;;;15.95;10.52;;;;;;;20.64;100.00;100125.91;5019787;28;20057;-87
2022/09/01 03:28:14;;;;;;;13.13;10.48;;;;;;;20.59;100.00;100126.59;5039740;28;20121;-88
2022/09/01 03:30:48;;;;;;;16.77;12.55;;;;;;;20.56;100.00;100128.94;5023214;28;20111;-90
2022/09/01 03:33:15;;;;;;;16.70;12.40;;;;;;;20.54;100.00;100125.66;5038664;28;20040;-87
2022/09/01 03:35:43;;;;;;;17.20;12.45;;;;;;;20.58;100.00;100118.75;5020962;28;20030;-86
2022/09/01 03:38:11;;;;;;;15.00;12.32;;;;;;;20.68;100.00;100129.75;5037680;28;20048;-87
2022/09/01 03:40:38;;;;;;;28.30;14.45;;;;;;;20.70;100.00;100124.94;5021684;28;20034;-87
2022/09/01 03:43:12;;;;;;;24.35;15.85;;;;;;;20.65;100.00;100127.50;5040330;28;20116;-88
2022/09/01 03:45:42;;;;;;;18.50;13.90;;;;;;;20.66;100.00;100128.31;5044205;28;20041;-85
2022/09/01 03:48:08;;;;;;;20.58;12.15;;;;;;;20.74;100.00;100130.66;5025891;28;20026;-88
2022/09/01 03:50:44;;;;;;;19.50;12.98;;;;;;;20.69;100.00;100127.84;5031217;28;20029;-87
2022/09/01 03:53:11;;;;;;;18.60;12.75;;;;;;;20.57;100.00;100131.41;5035961;28;20094;-86
2022/09/01 03:59:02;;;;;;;18.05;14.88;;;;;;;20.76;100.00;100129.38;5060345;28;20030;-88
2022/09/01 04:01:36;;;;;;;21.63;14.80;;;;;;;20.63;100.00;100135.84;5026561;28;20085;-88
2022/09/01 04:04:06;;;;;;;23.42;15.75;;;;;;;20.56;100.00;100128.94;5040692;28;20054;-88
2022/09/01 04:06:32;;;;;;;16.38;14.57;;;;;;;20.54;100.00;100122.97;5026206;28;20033;-86
2022/09/01 04:09:01;;;;;;;23.20;15.98;;;;;;;20.39;100.00;100122.63;5023517;28;20038;-87
2022/09/01 04:11:37;;;;;;;20.67;16.13;;;;;;;20.36;100.00;100120.41;5023884;28;20045;-86
2022/09/01 04:14:02;;;;;;;23.08;15.50;;;;;;;20.34;100.00;100117.16;5048747;28;20268;-86
2022/09/01 04:19:24;;;;;;;21.95;16.55;;;;;;;20.30;100.00;100113.28;5020492;28;20041;-87
2022/09/01 04:21:54;;;;;;;;;;;;;;;20.30;100.00;100110.59;5002254;28;20043;-87
2022/09/01 04:24:23;;;;;;;22.52;15.70;;;;;;;20.26;100.00;100118.28;5018056;28;19925;-88
2022/09/01 04:26:51;;;;;;;23.77;15.63;;;;;;;20.33;100.00;100123.56;5017863;28;20049;-89
2022/09/01 04:29:23;;;;;;;18.70;14.20;;;;;;;20.36;100.00;100123.09;5035746;28;20037;-86
2022/09/01 04:31:52;;;;;;;19.85;14.35;;;;;;;20.34;100.00;100130.59;5019407;28;20049;-86
2022/09/01 04:34:21;;;;;;;22.98;14.38;;;;;;;20.43;100.00;100118.41;5003742;28;20458;-88
2022/09/01 04:36:47;;;;;;;17.58;13.65;;;;;;;20.40;100.00;100124.28;5018186;28;20041;-87
2022/09/01 04:39:13;;;;;;;23.42;13.43;;;;;;;20.26;100.00;100122.84;5034761;28;20056;-90
2022/09/01 04:41:41;;;;;;;16.90;12.27;;;;;;;20.23;100.00;100117.94;5002329;28;20044;-89
2022/09/01 04:44:08;;;;;;;18.13;12.88;;;;;;;20.34;100.00;100117.16;4984403;28;20119;-89
2022/09/01 04:46:41;;;;;;;16.42;11.68;;;;;;;20.22;100.00;100116.31;5017109;28;20034;-88
2022/09/01 04:49:09;;;;;;;13.70;11.38;;;;;;;20.27;100.00;100121.81;5017848;28;20128;-92
2022/09/01 04:51:42;;;;;;;15.20;12.02;;;;;;;20.28;100.00;100126.16;5036393;28;20532;-91
2022/09/01 04:54:15;;;;;;;18.00;11.95;;;;;;;20.40;100.00;100126.97;5018300;28;20427;-91
2022/09/01 04:56:48;;;;;;;20.80;11.85;;;;;;;20.50;100.00;100119.13;5017137;28;20034;-89
2022/09/01 04:59:16;;;;;;;;;;;;;;;20.47;100.00;100116.91;5034196;28;20076;-87
2022/09/01 05:01:45;;;;;;;17.08;11.38;;;;;;;20.43;100.00;100121.09;5002033;28;19936;-90
2022/09/01 05:04:16;;;;;;;17.05;11.93;;;;;;;20.38;100.00;100123.72;5017737;28;20472;-89
2022/09/01 05:06:48;;;;;;;20.35;11.90;;;;;;;20.30;100.00;100127.56;5030191;28;20056;-89
2022/09/01 05:09:17;;;;;;;16.88;12.98;;;;;;;20.31;100.00;100131.91;5018619;28;20030;-91
2022/09/01 05:11:52;;;;;;;18.35;12.73;;;;;;;20.30;100.00;100132.13;5014628;28;20030;-92
2022/09/01 05:14:22;;;;;;;17.15;14.13;;;;;;;20.33;100.00;100134.34;4990264;28;20072;-92
2022/09/01 05:17:01;;;;;;;20.20;15.73;;;;;;;20.39;100.00;100133.41;4988626;28;20038;-93
2022/09/01 05:19:28;;;;;;;24.65;14.98;;;;;;;20.45;100.00;100135.16;5018422;28;20041;-92
2022/09/01 05:22:03;;;;;;;19.67;14.68;;;;;;;20.41;100.00;100142.91;5004740;28;20046;-91
2022/09/01 05:24:33;;;;;;;25.33;14.98;;;;;;;20.41;100.00;100147.47;5022763;28;20033;-91
2022/09/01 05:27:06;;;;;;;22.80;13.98;;;;;;;20.38;100.00;100147.94;5019712;28;20093;-90
2022/09/01 05:29:39;;;;;;;23.63;16.23;;;;;;;20.41;100.00;100150.97;5037607;28;20045;-90
2022/09/01 05:32:12;;;;;;;22.65;15.73;;;;;;;20.45;100.00;100152.13;5017985;28;20041;-91
2022/09/01 05:34:39;;;;;;;21.63;14.38;;;;;;;20.47;100.00;100149.22;5011182;28;20037;-91
2022/09/01 05:37:13;;;;;;;20.48;14.75;;;;;;;20.41;100.00;100160.91;5022309;28;20179;-87
2022/09/01 05:39:44;;;;;;;19.40;14.15;;;;;;;20.53;100.00;100153.63;5034921;28;20029;-88
2022/09/01 05:42:11;;;;;;;21.90;14.43;;;;;;;20.59;100.00;100156.22;5015814;28;20063;-88
2022/09/01 05:44:42;;;;;;;18.85;13.85;;;;;;;20.61;100.00;100142.53;5001361;28;20065;-87
2022/09/01 05:47:10;;;;;;;24.85;15.52;;;;;;;20.56;100.00;100145.91;5019183;28;20040;-92
2022/09/01 05:49:38;;;;;;;17.02;14.05;;;;;;;20.63;100.00;100152.00;5019682;28;20034;-89
2022/09/01 05:52:04;;;;;;;25.17;15.40;;;;;;;20.76;100.00;100142.84;5016501;28;20044;-91
2022/09/01 05:54:31;;;;;;;22.05;15.00;;;;;;;21.01;100.00;100148.72;5004481;28;20502;-88
2022/09/01 05:56:58;;;;;;;22.00;15.32;;;;;;;21.36;100.00;100154.03;5010967;28;20053;-91
2022/09/01 05:59:30;;;;;;;18.70;15.00;;;;;;;21.70;100.00;100154.94;5005516;28;20072;-89
2022/09/01 06:02:07;;;;;;;20.90;15.10;;;;;;;21.91;100.00;100164.19;5007911;28;20522;-88
2022/09/01 06:04:34;;;;;;;17.95;14.43;;;;;;;22.01;100.00;100165.19;4991544;28;20057;-89
2022/09/01 06:07:08;;;;;;;20.83;14.40;;;;;;;22.52;100.00;100172.19;5011757;28;20057;-92
2022/09/01 06:09:49;;;;;;;21.33;14.40;;;;;;;22.86;100.00;100172.94;5020208;28;20029;-91
2022/09/01 06:12:26;;;;;;;21.48;15.02;;;;;;;23.00;100.00;100170.69;5015031;28;20049;-91
2022/09/01 06:14:54;;;;;;;19.67;14.35;;;;;;;23.01;100.00;100175.00;5011869;28;20036;-93
2022/09/01 06:17:25;;;;;;;23.23;14.93;;;;;;;23.17;100.00;100174.13;5005428;28;20172;-87
2022/09/01 06:19:54;;;;;;;25.90;16.27;;;;;;;22.87;100.00;100185.38;5004851;28;20034;-88
2022/09/01 06:22:22;;;;;;;24.00;15.20;;;;;;;22.72;100.00;100190.59;5022518;28;20048;-86
2022/09/01 06:24:50;;;;;;;26.70;16.63;;;;;;;22.65;100.00;100190.72;4997289;28;20041;-88
2022/09/01 06:27:19;;;;;;;25.80;14.88;;;;;;;22.78;100.00;100192.28;5022773;28;20037;-88
2022/09/01 06:29:48;;;;;;;24.27;14.70;;;;;;;22.75;100.00;100192.78;5007792;28;20050;-89
2022/09/01 06:32:13;;;;;;;22.45;15.40;;;;;;;22.72;100.00;100196.00;5009051;28;20034;-89
2022/09/01 06:34:42;;;;;;;21.48;15.77;;;;;;;22.58;100.00;100197.38;5007943;28;20029;-87
2022/09/01 06:37:08;;;;;;;22.30;16.63;;;;;;;22.31;100.00;100207.22;5024757;28;20041;-87
2022/09/01 06:39:34;;;;;;;25.55;17.50;;;;;;;22.30;100.00;100209.13;5014544;28;20033;-90
2022/09/01 06:42:01;;;;;;;32.88;17.65;;;;;;;22.24;100.00;100201.97;5021153;28;20041;-90
2022/09/01 06:44:45;;;;;;;24.80;16.88;;;;;;;22.23;100.00;100210.34;5017562;28;20037;-90
2022/09/01 06:47:12;;;;;;;22.42;16.73;;;;;;;22.33;100.00;100210.50;5036960;28;20496;-91
2022/09/01 06:49:39;;;;;;;28.55;17.33;;;;;;;22.71;100.00;100217.84;5029399;28;20037;-93
2022/09/01 06:52:14;;;;;;;22.95;16.00;;;;;;;22.70;100.00;100216.22;5015813;28;20029;-91
2022/09/01 06:55:01;;;;;;;21.58;16.20;;;;;;;22.57;100.00;100222.75;5011545;28;20048;-93
2022/09/01 06:57:34;;;;;;;23.80;16.25;;;;;;;22.57;100.00;100228.97;5029464;28;20036;-90
2022/09/01 07:00:06;;;;;;;25.10;16.88;;;;;;;22.45;100.00;100227.41;5023983;28;20113;-91
2022/09/01 07:02:33;;;;;;;;;;;;;;;22.45;100.00;100232.81;5051446;28;20029;-90
2022/09/01 07:05:24;;;;;;;26.50;17.55;;;;;;;22.44;100.00;100233.88;5043663;28;19940;-88
2022/09/01 07:08:06;;;;;;;23.48;18.65;;;;;;;22.33;100.00;100227.53;5032336;28;20130;-89
2022/09/01 07:11:23;;;;;;;30.90;18.98;;;;;;;22.50;100.00;100232.91;4952429;29;20471;-90
2022/09/01 07:16:18;;;;;;;28.67;17.67;;;;;;;22.62;100.00;100236.34;5055522;22;20109;-90
2022/09/01 07:19:12;;;;;;;22.77;17.70;;;;;;;22.64;100.00;100243.13;5000413;28;20570;-91
2022/09/01 07:27:49;;;;;;;24.02;16.60;;;;;;;23.03;100.00;100244.00;4595645;22;20046;-91
2022/09/01 07:33:30;;;;;;;26.15;16.70;;;;;;;23.81;100.00;100250.88;4959676;26;20061;-90
2022/09/01 07:36:03;;;;;;;28.77;18.50;;;;;;;24.43;100.00;100253.91;5031676;22;20053;-94
2022/09/01 07:38:37;;;;;;;26.30;16.33;;;;;;;25.26;100.00;100251.44;5038176;28;20033;-91
2022/09/01 07:41:13;;;;;;;30.75;17.15;;;;;;;25.92;100.00;100255.22;5043355;28;20136;-91
2022/09/01 07:43:50;;;;;;;19.50;14.65;;;;;;;26.03;100.00;100257.66;5038567;28;20044;-93
2022/09/01 07:46:32;;;;;;;20.75;15.18;;;;;;;25.78;100.00;100259.53;5034916;28;20064;-89
2022/09/01 07:49:02;;;;;;;21.52;13.82;;;;;;;26.32;100.00;100263.41;5016866;28;20476;-93
2022/09/01 07:51:29;;;;;;;18.65;13.10;;;;;;;25.98;100.00;100271.25;5001171;28;20533;-93
2022/09/01 07:54:02;;;;;;;19.00;13.40;;;;;;;25.46;100.00;100268.63;5007100;28;20109;-91
2022/09/01 07:56:35;;;;;;;18.52;14.45;;;;;;;24.89;100.00;100256.97;5046451;28;20125;-93
2022/09/01 07:59:09;;;;;;;22.50;15.50;;;;;;;24.81;100.00;100260.94;5012025;28;20037;-92
2022/09/01 08:01:44;;;;;;;26.83;14.70;;;;;;;24.99;100.00;100263.25;5019665;28;20057;-92
2022/09/01 08:04:10;;;;;;;;;;;;;;;24.83;100.00;100272.38;5024085;28;20076;-92
2022/09/01 08:06:41;;;;;;;18.27;13.32;;;;;;;25.24;100.00;100280.72;5023795;28;19918;-91
2022/09/01 08:12:12;;;;;;;15.38;11.20;;;;;;;24.89;100.00;100273.22;2376329;22;20033;-92
2022/09/01 08:18:31;;;;;;;20.00;11.52;;;;;;;25.60;100.00;100277.94;5051995;28;20105;-88
2022/09/01 08:20:58;;;;;;;19.20;10.55;;;;;;;25.53;100.00;100281.97;5011856;28;20034;-88
2022/09/01 08:23:39;;;;;;;16.80;11.73;;;;;;;25.75;100.00;100279.88;5053744;28;20086;-89
2022/09/01 08:26:12;;;;;;;15.45;12.57;;;;;;;25.78;100.00;100271.22;5039828;28;20021;-86
2022/09/01 08:28:39;;;;;;;;;;;;;;;25.86;100.00;100269.84;5037774;28;20029;-92
2022/09/01 08:31:07;;;;;;;17.17;11.82;;;;;;;25.76;100.00;100273.34;5055579;28;19912;-90
2022/09/01 08:33:34;;;;;;;15.57;12.68;;;;;;;25.90;100.00;100274.47;5036552;28;20035;-89
2022/09/01 08:36:00;;;;;;;21.05;12.82;;;;;;;25.36;100.00;100276.72;5021995;28;20159;-89
2022/09/01 08:38:26;;;;;;;19.13;12.00;;;;;;;25.37;100.00;100277.53;5001121;28;20506;-88
2022/09/01 08:40:55;;;;;;;19.75;13.00;;;;;;;25.37;100.00;100274.81;5020070;28;20041;-91
2022/09/01 08:46:07;;;;;;;17.55;11.13;;;;;;;26.84;100.00;100279.44;5035729;28;20045;-83
2022/09/01 08:48:41;;;;;;;17.42;10.15;;;;;;;27.18;93.12;100288.59;5017774;28;20068;-82
2022/09/01 08:51:58;;;;;;;12.02;10.27;;;;;;;26.77;94.91;100295.19;5046531;28;20085;-86
2022/09/01 08:54:56;;;;;;;14.65;9.57;;;;;;;26.13;97.52;100290.28;5038296;28;20029;-83
2022/09/01 08:57:34;;;;;;;17.90;10.23;;;;;;;26.28;97.25;100285.97;5037046;28;20041;-84
2022/09/01 09:00:46;;;;;;;18.38;10.82;;;;;;;26.43;97.06;100288.69;5029059;28;20108;-84
2022/09/01 09:03:31;;;;;;;16.43;9.93;;;;;;;25.92;100.00;100291.31;5044307;28;20037;-85
2022/09/01 09:06:59;;;;;;;17.33;11.52;;;;;;;25.95;100.00;100287.25;5046540;28;20034;-85
2022/09/01 09:14:11;;;;;;;15.52;9.60;;;;;;;25.42;100.00;100293.84;5055366;28;20052;-87
2022/09/01 09:17:05;;;;;;;18.48;9.50;;;;;;;25.18;100.00;100288.84;5050181;28;20037;-85
2022/09/01 09:19:46;;;;;;;15.80;9.50;;;;;;;25.07;100.00;100308.84;5033637;28;20113;-82
2022/09/01 09:22:26;;;;;;;14.98;9.00;;;;;;;25.10;100.00;100302.91;5020694;28;20029;-83
2022/09/01 09:25:19;;;;;;;11.57;8.55;;;;;;;25.21;100.00;100298.34;5033468;28;20053;-83
2022/09/01 09:28:09;;;;;;;18.38;9.40;;;;;;;24.75;100.00;100301.84;5046025;28;20049;-83
2022/09/01 09:30:42;;;;;;;15.75;8.48;;;;;;;24.84;100.00;100300.28;5008419;28;20053;-83
2022/09/01 09:33:41;;;;;;;14.13;8.82;;;;;;;25.27;100.00;100300.00;5044485;28;20043;-85
2022/09/01 09:36:45;;;;;;;8.68;7.15;;;;;;;25.53;96.86;100309.09;5178283;22;20045;-82
2022/09/01 09:40:01;;;;;;;8.07;5.45;;;;;;;25.39;93.43;100305.25;5028155;28;20043;-83
2022/09/01 09:43:28;;;;;;;6.70;5.37;;;;;;;25.30;91.61;100306.81;5000084;28;20043;-83
2022/09/01 09:46:29;;;;;;;6.97;4.10;;;;;;;25.59;90.13;100297.19;5018998;28;20293;-84
2022/09/01 09:49:33;;;;;;;7.35;4.75;;;;;;;25.58;89.48;100301.81;4970386;28;20092;-81
2022/09/01 09:52:27;;;;;;;9.95;5.70;;;;;;;25.39;91.27;100299.81;4949107;28;20049;-86
2022/09/01 09:55:03;;;;;;;7.75;5.35;;;;;;;25.68;90.30;100304.56;4990305;28;20035;-82
2022/09/01 09:57:37;;;;;;;5.38;3.38;;;;;;;25.47;86.24;100307.44;4976298;28;20070;-82
2022/09/01 10:00:26;;;;;;;8.10;4.60;;;;;;;25.17;89.09;100292.63;5003744;28;20030;-83
2022/09/01 10:03:32;;;;;;;7.28;4.57;;;;;;;25.19;89.99;100301.31;5042120;28;20106;-82
2022/09/01 10:06:47;;;;;;;11.05;4.75;;;;;;;25.69;88.33;100287.19;5048162;28;20041;-81
2022/09/01 10:09:25;;;;;;;10.43;5.55;;;;;;;26.09;86.32;100282.91;5040530;28;20061;-83
2022/09/01 10:19:04;;;;;;;6.05;1.95;;;;;;;26.61;78.44;100274.56;5022656;28;20041;-88
2022/09/01 10:22:45;;;;;;;3.53;1.83;;;;;;;26.94;78.31;100284.88;5014075;28;20048;-82
2022/09/01 10:29:20;;;;;;;5.45;2.67;;;;;;;26.78;77.30;100280.50;4999655;28;20068;-86
2022/09/01 10:32:14;;;;;;;5.10;2.10;;;;;;;26.40;78.11;100275.63;4997654;28;20037;-85
2022/09/01 10:38:10;;;;;;;3.63;1.40;;;;;;;26.20;77.34;100274.56;5181056;22;20029;-85
2022/09/01 10:41:10;;;;;;;2.20;1.77;;;;;;;26.46;77.47;100263.69;5043222;28;20077;-84
2022/09/01 10:54:04;;;;;;;3.95;1.80;;;;;;;27.14;73.89;100276.66;5169571;22;20110;-88
2022/09/01 11:30:51;;;;;;;5.32;1.10;;;;;;;30.13;50.73;100296.66;5286056;23;20024;-84
2022/09/01 11:33:42;;;;;;;1.52;0.80;;;;;;;29.33;52.03;100277.53;5004891;28;20141;-84
2022/09/01 11:36:35;;;;;;;5.35;1.35;;;;;;;29.29;54.35;100276.50;5003894;28;20026;-83
2022/09/01 11:39:12;;;;;;;;;;;;;;;29.37;53.21;100278.56;5003498;28;20156;-84
2022/09/01 11:42:02;;;;;;;1.35;0.98;;;;;;;29.30;53.19;100271.84;5000728;28;19922;-83
2022/09/01 11:44:35;;;;;;;2.20;0.88;;;;;;;29.17;54.93;100263.22;5004044;28;20060;-83
2022/09/01 11:47:26;;;;;;;1.23;0.90;;;;;;;28.79;55.76;100272.38;4985604;28;20404;-83
2022/09/01 11:49:56;;;;;;;2.30;1.13;;;;;;;27.82;59.55;100260.56;4989087;28;20061;-84
2022/09/01 11:52:26;;;;;;;1.17;0.90;;;;;;;27.07;62.20;100269.88;4999794;28;20140;-83
2022/09/01 11:54:56;;;;;;;4.22;1.30;;;;;;;26.46;65.19;100259.06;5004733;28;20092;-84
2022/09/01 11:57:29;;;;;;;1.88;1.10;;;;;;;26.69;64.82;100257.66;5001531;28;20441;-86
2022/09/01 11:59:56;;;;;;;3.38;1.10;;;;;;;26.73;65.85;100253.31;4994807;28;20077;-84
2022/09/01 12:02:25;;;;;;;2.10;1.25;;;;;;;26.50;65.89;100246.56;5005245;28;20390;-84
2022/09/01 12:04:56;;;;;;;4.20;1.27;;;;;;;26.33;68.36;100261.50;5004571;28;20435;-89
2022/09/01 12:07:27;;;;;;;2.20;1.60;;;;;;;26.42;68.03;100249.81;5013603;28;20034;-89
2022/09/01 12:09:54;;;;;;;2.33;1.20;;;;;;;26.49;69.65;100249.53;5014960;28;20034;-90
2022/09/01 12:12:34;;;;;;;5.88;1.52;;;;;;;26.52;69.94;100254.44;5022026;28;20029;-91
2022/09/01 12:15:09;;;;;;;2.88;1.50;;;;;;;26.31;70.53;100244.69;4977445;28;20034;-90
2022/09/01 12:17:35;;;;;;;2.28;1.52;;;;;;;26.28;70.93;100242.50;4989691;28;20500;-90
2022/09/01 12:20:31;;;;;;;7.78;1.95;;;;;;;26.23;72.83;100253.34;4992178;28;20034;-88
2022/09/01 12:22:58;;;;;;;9.80;1.80;;;;;;;26.24;73.67;100249.56;4994688;28;20084;-91
2022/09/01 12:25:32;;;;;;;7.70;1.73;;;;;;;26.27;73.49;100240.88;4989502;28;20034;-89
2022/09/01 12:28:04;;;;;;;8.45;1.90;;;;;;;26.29;72.08;100242.22;5019195;28;20096;-90
2022/09/01 12:30:34;;;;;;;3.03;1.30;;;;;;;26.10;73.04;100241.91;4992278;28;20598;-90
2022/09/01 12:33:03;;;;;;;1.77;1.30;;;;;;;26.25;72.12;100243.06;5016629;28;20041;-90
2022/09/01 12:35:29;;;;;;;6.30;1.90;;;;;;;26.09;72.15;100245.72;5005563;28;20034;-90
2022/09/01 12:38:19;;;;;;;1.73;1.40;;;;;;;26.32;72.65;100244.38;4992681;28;20045;-88
2022/09/01 12:41:25;;;;;;;2.53;1.50;;;;;;;26.32;72.89;100233.50;5012312;28;20121;-88
2022/09/01 12:44:30;;;;;;;2.78;1.60;;;;;;;26.31;73.34;100237.34;5005940;28;20049;-87
2022/09/01 12:47:23;;;;;;;5.35;1.63;;;;;;;26.32;73.80;100233.50;5012786;28;20022;-86
2022/09/01 12:49:48;;;;;;;4.38;1.65;;;;;;;26.23;73.74;100231.63;5032909;28;20054;-89
2022/09/01 12:52:26;;;;;;;7.63;1.60;;;;;;;26.19;71.66;100228.63;5022511;28;20041;-87
2022/09/01 12:54:58;;;;;;;2.90;1.65;;;;;;;26.09;71.84;100237.56;5019662;28;20038;-89
2022/09/01 12:57:28;;;;;;;6.47;1.95;;;;;;;26.08;71.83;100238.63;5035393;28;20021;-89
2022/09/01 13:00:10;;;;;;;3.30;1.83;;;;;;;26.17;71.90;100231.63;5007660;28;20038;-89
2022/09/01 13:02:38;;;;;;;6.20;1.50;;;;;;;26.16;72.24;100235.44;4996836;28;20031;-87
2022/09/01 13:05:30;;;;;;;3.83;1.42;;;;;;;25.96;71.71;100224.50;5012049;28;20076;-92
2022/09/01 13:08:05;;;;;;;4.82;1.42;;;;;;;26.04;72.54;100226.72;5011050;28;20066;-87
2022/09/01 13:10:36;;;;;;;3.80;1.48;;;;;;;26.06;71.10;100229.94;5005444;28;20435;-86
2022/09/01 13:13:04;;;;;;;2.85;1.17;;;;;;;25.91;72.53;100221.00;5006556;28;20401;-90
2022/09/01 13:15:30;;;;;;;2.72;1.10;;;;;;;25.97;72.54;100223.44;5005637;28;20387;-85
2022/09/01 13:17:56;;;;;;;7.03;1.20;;;;;;;25.97;73.14;100230.75;5002500;28;20033;-89